Weather at Aberdeen Dyce Airport

Public forecast

Using degrees Celsius for public forecast. Weather courtesy of forecast.io.

Current aviation weather report (METAR) for Aberdeen Dyce Airport

Retrieved 2021/08/02 10:50 UTC (19 minutes ago):

EGPD 021050Z AUTO 31005KT 250V010 9999 OVC029 14/08 Q1014 NOSIG

Aviation forecast (TAF) for Aberdeen Dyce Airport

Retrieved 2021/08/02 06:00 UTC (5 hours ago):

TAF EGPD 020455Z 0206/0306 28005KT 9999 BKN030 BECMG 0212/0215 12010KT BECMG 0218/0221 VRB03KT